Time;durP1;ratioP1;P1;durP2;ratioP2;P2;SDS_P1;SDS_P2;PMS_P1;PMS_P2;Temp;Humidity;BMP_temperature;BMP_pressure;BME280_temperature;BME280_humidity;BME280_pressure;Samples;Min_cycle;Max_cycle;Signal;HPM_P1;HPM_P2
2022/11/29 00:02:06;;;;;;;;;;;;;;;6.67;100.00;101397.13;5082334;28;19920;-60
2022/11/29 00:04:31;;;;;;;;;;;;;;;6.67;100.00;101398.91;5088952;28;19924;-59
2022/11/29 00:06:56;;;;;;;;;;;;;;;6.69;100.00;101396.97;5089161;28;20404;-60
2022/11/29 00:09:22;;;;;;;;;;;;;;;6.70;100.00;101403.94;5080085;28;19920;-59
2022/11/29 00:14:31;;;;;;;;;;;;;;;6.70;100.00;101402.13;5089198;28;19920;-60
2022/11/29 00:17:00;;;;;;;;;;;;;;;6.68;100.00;101405.88;5076490;28;19925;-57
2022/11/29 00:19:25;;;;;;;;;;;;;;;6.67;100.00;101399.75;5085675;28;19952;-57
2022/11/29 00:21:50;;;;;;;;;;;;;;;6.66;100.00;101398.09;5090554;28;20048;-59
2022/11/29 00:24:16;;;;;;;;;;;;;;;6.63;100.00;101400.97;5087941;28;19920;-57
2022/11/29 00:26:41;;;;;;;;;;;;;;;6.58;100.00;101402.31;5087275;28;19917;-57
2022/11/29 00:29:06;;;;;;;;;;;;;;;6.51;100.00;101400.22;5090868;28;19920;-62
2022/11/29 00:31:32;;;;;;;;;;;;;;;6.49;100.00;101403.97;5083967;28;19916;-60
2022/11/29 00:33:58;;;;;;;;;;;;;;;6.50;100.00;101411.75;5085894;28;19923;-59
2022/11/29 00:36:24;;;;;;;;;;;;;;;6.53;100.00;101406.19;5091492;28;19999;-57
2022/11/29 00:38:49;;;;;;;;;;;;;;;6.57;100.00;101411.22;5085207;28;19931;-57
2022/11/29 00:41:14;;;;;;;;;;;;;;;6.60;100.00;101416.22;5086643;28;20402;-57
2022/11/29 00:43:39;;;;;;;;;;;;;;;6.61;100.00;101416.09;5087692;28;19916;-57
2022/11/29 00:46:05;;;;;;;;;;;;;;;6.60;100.00;101418.88;5089836;28;19920;-60
2022/11/29 00:48:30;;;;;;;;;;;;;;;6.59;100.00;101414.56;5090654;28;19950;-60
2022/11/29 00:50:55;;;;;;;;;;;;;;;6.58;100.00;101413.72;5089456;28;19927;-60
2022/11/29 00:53:21;;;;;;;;;;;;;;;6.57;100.00;101413.84;5091562;28;19916;-59
2022/11/29 00:55:47;;;;;;;;;;;;;;;6.54;100.00;101412.31;5087074;28;20010;-56
2022/11/29 00:58:12;;;;;;;;;;;;;;;6.51;100.00;101418.69;5087472;28;20291;-60
2022/11/29 01:00:37;;;;;;;;;;;;;;;6.51;100.00;101418.69;5083572;28;20029;-59
2022/11/29 01:03:02;;;;;;;;;;;;;;;6.52;100.00;101420.34;5084310;28;19927;-58
2022/11/29 01:05:29;;;;;;;;;;;;;;;6.53;100.00;101423.84;5083074;28;20589;-62
2022/11/29 01:07:54;;;;;;;;;;;;;;;6.53;100.00;101416.75;5089206;28;19922;-58
2022/11/29 01:10:19;;;;;;;;;;;;;;;6.56;100.00;101425.38;5085007;28;19920;-58
2022/11/29 01:12:44;;;;;;;;;;;;;;;6.58;100.00;101413.72;5088411;28;20494;-59
2022/11/29 01:15:10;;;;;;;;;;;;;;;6.59;100.00;101417.19;5086176;28;19924;-60
2022/11/29 01:17:35;;;;;;;;;;;;;;;6.61;100.00;101421.38;5084505;28;20015;-58
2022/11/29 01:20:01;;;;;;;;;;;;;;;6.61;100.00;101424.00;5085946;28;20337;-59
2022/11/29 01:22:26;;;;;;;;;;;;;;;6.63;100.00;101421.22;5087116;28;20379;-60
2022/11/29 01:24:51;;;;;;;;;;;;;;;6.62;100.00;101425.69;5088368;28;19946;-58
2022/11/29 01:27:16;;;;;;;;;;;;;;;6.60;100.00;101422.34;5088692;28;19920;-59
2022/11/29 01:29:41;;;;;;;;;;;;;;;6.59;100.00;101417.19;5086357;28;19977;-59
2022/11/29 01:32:06;;;;;;;;;;;;;;;6.59;100.00;101423.31;5085974;28;19947;-59
2022/11/29 01:34:32;;;;;;;;;;;;;;;6.59;100.00;101425.94;5086610;28;20006;-60
2022/11/29 01:36:57;;;;;;;;;;;;;;;6.57;100.00;101424.41;5086549;28;20398;-58
2022/11/29 01:39:22;;;;;;;;;;;;;;;6.56;100.00;101423.56;5090036;28;20256;-60
2022/11/29 01:41:47;;;;;;;;;;;;;;;6.54;100.00;101428.13;5085593;28;20000;-58
2022/11/29 01:44:12;;;;;;;;;;;;;;;6.53;100.00;101426.47;5087418;28;20330;-58
2022/11/29 01:46:42;;;;;;;;;;;;;;;6.52;100.00;101436.19;5085843;28;19963;-58
2022/11/29 01:49:12;;;;;;;;;;;;;;;6.52;100.00;101438.81;5087939;28;20018;-60
2022/11/29 01:51:39;;;;;;;;;;;;;;;6.51;100.00;101437.16;5084258;28;19999;-59
2022/11/29 01:54:05;;;;;;;;;;;;;;;6.49;100.00;101433.81;5086489;28;20015;-59
2022/11/29 01:56:32;;;;;;;;;;;;;;;6.46;100.00;101444.63;5087066;28;19927;-59
2022/11/29 01:58:59;;;;;;;;;;;;;;;6.44;100.00;101440.44;5087950;28;19967;-57
2022/11/29 02:01:24;;;;;;;;;;;;;;;6.42;100.00;101440.56;5085818;28;19924;-60
2022/11/29 02:03:49;;;;;;;;;;;;;;;6.41;100.00;101446.81;5083704;28;19974;-60
2022/11/29 02:06:15;;;;;;;;;;;;;;;6.37;100.00;101457.75;5086520;28;20338;-59
2022/11/29 02:08:41;;;;;;;;;;;;;;;6.30;100.00;101457.41;5082594;28;19934;-59
2022/11/29 02:11:06;;;;;;;;;;;;;;;6.21;100.00;101461.66;5083054;28;19961;-59
2022/11/29 02:13:36;;;;;;;;;;;;;;;6.15;100.00;101456.91;5084709;28;19916;-60
2022/11/29 02:16:04;;;;;;;;;;;;;;;6.09;100.00;101461.84;5086478;28;19923;-59
2022/11/29 02:18:29;;;;;;;;;;;;;;;6.01;100.00;101458.97;5086173;28;19924;-61
2022/11/29 02:21:13;;;;;;;;;;;;;;;5.93;100.00;101464.88;5077998;28;19916;-60
2022/11/29 02:23:47;;;;;;;;;;;;;;;5.84;100.00;101463.81;5086304;28;19963;-59
2022/11/29 02:26:36;;;;;;;;;;;;;;;5.68;100.00;101466.00;5078660;28;20380;-58
2022/11/29 02:29:28;;;;;;;;;;;;;;;5.49;100.00;101465.78;5068820;28;20490;-57
2022/11/29 02:32:06;;;;;;;;;;;;;;;5.41;100.00;101470.84;5081532;28;19923;-59
2022/11/29 02:34:43;;;;;;;;;;;;;;;5.40;100.00;101467.38;5083470;28;19916;-60
2022/11/29 02:37:26;;;;;;;;;;;;;;;5.44;100.00;101468.78;5080437;28;19924;-56
2022/11/29 02:39:51;;;;;;;;;;;;;;;5.44;100.00;101465.31;5082483;28;20051;-58
2022/11/29 02:42:47;;;;;;;;;;;;;;;5.41;100.00;101471.69;5084421;28;20002;-57
2022/11/29 02:45:33;;;;;;;;;;;;;;;5.42;100.00;101468.09;5082847;28;19925;-60
2022/11/29 02:47:58;;;;;;;;;;;;;;;5.44;100.00;101467.97;5086351;28;19923;-59
2022/11/29 02:50:39;;;;;;;;;;;;;;;5.47;100.00;101467.72;5085298;28;19920;-58
2022/11/29 02:53:17;;;;;;;;;;;;;;;5.50;100.00;101470.13;5084087;28;20511;-56
2022/11/29 02:55:42;;;;;;;;;;;;;;;5.52;100.00;101466.41;5081058;28;19927;-59
2022/11/29 02:58:14;;;;;;;;;;;;;;;5.55;100.00;101474.06;5080528;28;19977;-59
2022/11/29 03:00:44;;;;;;;;;;;;;;;5.58;100.00;101475.63;5083321;28;19916;-59
2022/11/29 03:03:35;;;;;;;;;;;;;;;5.61;100.00;101483.28;5079564;28;19920;-58
2022/11/29 03:06:22;;;;;;;;;;;;;;;5.66;100.00;101482.91;5086267;28;19916;-58
2022/11/29 03:08:54;;;;;;;;;;;;;;;5.69;100.00;101483.50;5082496;28;20387;-59
2022/11/29 03:11:27;;;;;;;;;;;;;;;5.71;100.00;101492.09;5082950;28;19916;-57
2022/11/29 03:14:10;;;;;;;;;;;;;;;5.72;100.00;101487.66;5084928;28;20291;-59
2022/11/29 03:16:42;;;;;;;;;;;;;;;5.74;100.00;101486.59;5081994;28;19921;-58
2022/11/29 03:19:26;;;;;;;;;;;;;;;5.76;100.00;101497.84;5085184;28;19924;-61
2022/11/29 03:21:58;;;;;;;;;;;;;;;5.73;100.00;101492.81;5084228;28;19942;-59
2022/11/29 03:24:28;;;;;;;;;;;;;;;5.70;100.00;101505.41;5084947;28;20390;-61
2022/11/29 03:27:03;;;;;;;;;;;;;;;5.64;100.00;101501.47;5086298;28;20011;-59
2022/11/29 03:29:33;;;;;;;;;;;;;;;5.60;100.00;101502.69;5082745;28;19916;-59
2022/11/29 03:32:01;;;;;;;;;;;;;;;5.57;100.00;101511.66;5080661;28;20252;-57
2022/11/29 03:34:39;;;;;;;;;;;;;;;5.55;100.00;101500.41;5083409;28;19916;-59
2022/11/29 03:37:08;;;;;;;;;;;;;;;5.54;100.00;101511.91;5082169;28;19928;-59
2022/11/29 03:39:42;;;;;;;;;;;;;;;5.53;100.00;101512.88;5081961;28;19928;-59
2022/11/29 03:42:12;;;;;;;;;;;;;;;5.50;100.00;101515.75;5083941;28;19920;-59
2022/11/29 03:44:49;;;;;;;;;;;;;;;5.47;100.00;101513.34;5082900;28;20349;-60
2022/11/29 03:47:18;;;;;;;;;;;;;;;5.45;100.00;101514.41;5082480;28;19916;-58
2022/11/29 03:49:46;;;;;;;;;;;;;;;5.48;100.00;101516.81;5081639;28;19924;-61
2022/11/29 03:52:11;;;;;;;;;;;;;;;5.52;100.00;101519.09;5083351;28;19962;-59
2022/11/29 03:54:56;;;;;;;;;;;;;;;5.57;100.00;101530.09;5084835;28;19959;-59
2022/11/29 03:57:29;;;;;;;;;;;;;;;5.62;100.00;101534.16;5080781;28;19924;-61
2022/11/29 04:00:03;;;;;;;;;;;;;;;5.61;100.00;101541.25;5079134;28;19920;-60
2022/11/29 04:02:42;;;;;;;;;;;;;;;5.59;100.00;101540.53;5081563;28;19924;-57
2022/11/29 04:05:16;;;;;;;;;;;;;;;5.51;100.00;101535.88;5084716;28;20019;-62
2022/11/29 04:07:53;;;;;;;;;;;;;;;5.42;100.00;101538.38;5083353;28;19924;-59
2022/11/29 04:10:37;;;;;;;;;;;;;;;5.37;100.00;101543.16;5084838;28;19931;-57
2022/11/29 04:13:24;;;;;;;;;;;;;;;5.34;100.00;101546.03;5085194;28;19924;-60
2022/11/29 04:16:01;;;;;;;;;;;;;;;5.31;100.00;101546.28;5083094;28;20340;-58
2022/11/29 04:18:35;;;;;;;;;;;;;;;5.25;100.00;101543.16;5081384;28;19927;-59
2022/11/29 04:21:19;;;;;;;;;;;;;;;5.26;100.00;101544.84;5081648;28;19923;-60
2022/11/29 04:24:03;;;;;;;;;;;;;;;5.28;100.00;101540.28;5078313;28;19920;-59
2022/11/29 04:26:46;;;;;;;;;;;;;;;5.24;100.00;101541.50;5085008;28;19943;-57
2022/11/29 04:29:32;;;;;;;;;;;;;;;5.21;100.00;101548.78;5079835;28;19922;-60
2022/11/29 04:32:20;;;;;;;;;;;;;;;5.18;100.00;101557.75;5081464;28;19927;-58
2022/11/29 04:35:09;;;;;;;;;;;;;;;5.17;100.00;101561.31;5081516;28;19924;-59
2022/11/29 04:37:53;;;;;;;;;;;;;;;5.20;100.00;101563.75;5083618;28;20327;-58
2022/11/29 04:40:46;;;;;;;;;;;;;;;5.24;100.00;101565.19;5084813;28;19916;-57
2022/11/29 04:43:14;;;;;;;;;;;;;;;5.26;100.00;101565.06;5082678;28;19923;-60
2022/11/29 04:45:39;;;;;;;;;;;;;;;5.28;100.00;101573.69;5083683;28;19916;-60
2022/11/29 04:48:23;;;;;;;;;;;;;;;5.31;100.00;101575.25;5084679;28;19916;-57
2022/11/29 04:51:00;;;;;;;;;;;;;;;5.31;100.00;101578.72;5083932;28;19916;-59
2022/11/29 04:53:44;;;;;;;;;;;;;;;5.33;100.00;101578.59;5084668;28;19923;-60
2022/11/29 04:56:18;;;;;;;;;;;;;;;5.34;100.00;101580.28;5083755;28;19920;-58
2022/11/29 04:58:56;;;;;;;;;;;;;;;5.36;100.00;101581.00;5082527;28;19926;-61
2022/11/29 05:01:26;;;;;;;;;;;;;;;5.41;100.00;101576.19;5079900;28;20430;-61
2022/11/29 05:04:12;;;;;;;;;;;;;;;5.43;100.00;101587.44;5083506;28;20283;-60
2022/11/29 05:06:56;;;;;;;;;;;;;;;5.42;100.00;101589.25;5084794;28;20535;-58
2022/11/29 05:09:39;;;;;;;;;;;;;;;5.42;100.00;101596.31;5084602;28;20204;-60
2022/11/29 05:12:09;;;;;;;;;;;;;;;5.40;100.00;101596.44;5087550;28;20395;-59
2022/11/29 05:14:49;;;;;;;;;;;;;;;5.37;100.00;101604.56;5086609;28;19923;-58
2022/11/29 05:17:34;;;;;;;;;;;;;;;5.35;100.00;101606.50;5080716;28;20380;-60
2022/11/29 05:20:03;;;;;;;;;;;;;;;5.33;100.00;101608.41;5067007;28;19974;-61
2022/11/29 05:22:33;;;;;;;;;;;;;;;5.27;100.00;101609.72;5087657;28;19924;-60
2022/11/29 05:25:16;;;;;;;;;;;;;;;5.22;100.00;101606.59;5088456;28;19959;-58
2022/11/29 05:27:47;;;;;;;;;;;;;;;5.22;100.00;101622.41;5087882;28;19924;-57
2022/11/29 05:30:14;;;;;;;;;;;;;;;5.20;100.00;101618.19;5083204;28;19920;-60
2022/11/29 05:32:42;;;;;;;;;;;;;;;5.20;100.00;101618.19;5086736;28;19976;-59
2022/11/29 05:35:22;;;;;;;;;;;;;;;5.19;100.00;101616.50;5080793;28;19924;-59
2022/11/29 05:37:50;;;;;;;;;;;;;;;5.20;100.00;101623.44;5088434;28;20451;-57
2022/11/29 05:40:15;;;;;;;;;;;;;;;5.22;100.00;101626.81;5081877;28;19916;-58
2022/11/29 05:42:59;;;;;;;;;;;;;;;5.22;100.00;101622.41;5080292;28;19920;-56
2022/11/29 05:45:29;;;;;;;;;;;;;;;5.19;100.00;101627.88;5085676;28;19929;-57
2022/11/29 05:48:17;;;;;;;;;;;;;;;5.18;100.00;101630.63;5090048;28;19991;-59
2022/11/29 05:50:49;;;;;;;;;;;;;;;5.16;100.00;101637.81;5086184;28;19916;-58
2022/11/29 05:53:29;;;;;;;;;;;;;;;5.18;100.00;101638.53;5085534;28;20485;-59
2022/11/29 05:55:57;;;;;;;;;;;;;;;5.20;100.00;101645.38;5082674;28;19913;-57
2022/11/29 05:58:34;;;;;;;;;;;;;;;5.24;100.00;101649.44;5084299;28;19946;-59
2022/11/29 06:01:20;;;;;;;;;;;;;;;5.26;100.00;101646.69;5082070;28;19918;-59
2022/11/29 06:03:52;;;;;;;;;;;;;;;5.33;100.00;101652.34;5086805;28;19913;-60
2022/11/29 06:06:17;;;;;;;;;;;;;;;5.37;100.00;101656.41;5085481;28;19920;-59
2022/11/29 06:09:09;;;;;;;;;;;;;;;5.42;100.00;101651.63;5090678;28;19912;-60
2022/11/29 06:11:40;;;;;;;;;;;;;;;5.49;100.00;101663.38;5085940;28;19923;-60
2022/11/29 06:14:33;;;;;;;;;;;;;;;5.52;100.00;101671.06;5089253;28;19998;-59
2022/11/29 06:17:17;;;;;;;;;;;;;;;5.55;100.00;101663.75;5088335;28;19923;-59
2022/11/29 06:19:51;;;;;;;;;;;;;;;5.57;100.00;101666.28;5084867;28;19922;-59
2022/11/29 06:22:35;;;;;;;;;;;;;;;5.58;100.00;101665.31;5083179;28;19927;-60
2022/11/29 06:25:16;;;;;;;;;;;;;;;5.59;100.00;101661.72;5084957;28;19923;-60
2022/11/29 06:27:47;;;;;;;;;;;;;;;5.59;100.00;101667.81;5081926;28;19924;-59
2022/11/29 06:30:13;;;;;;;;;;;;;;;5.60;100.00;101680.03;5082865;28;19917;-58
2022/11/29 06:32:49;;;;;;;;;;;;;;;5.60;100.00;101674.78;5083835;28;19924;-60
2022/11/29 06:35:33;;;;;;;;;;;;;;;5.59;100.00;101683.63;5078381;28;19927;-60
2022/11/29 06:38:01;;;;;;;;;;;;;;;5.60;100.00;101689.75;5085529;28;20002;-60
2022/11/29 06:40:27;;;;;;;;;;;;;;;5.59;100.00;101693.34;5082402;28;19930;-60
2022/11/29 06:42:52;;;;;;;;;;;;;;;5.57;100.00;101698.72;5084760;28;19916;-59
2022/11/29 06:45:17;;;;;;;;;;;;;;;5.55;100.00;101705.06;5087442;28;20524;-61
2022/11/29 06:47:51;;;;;;;;;;;;;;;5.53;100.00;101714.88;5088919;28;19916;-60
2022/11/29 06:50:16;;;;;;;;;;;;;;;5.49;100.00;101722.19;5084902;28;19961;-59
2022/11/29 06:52:48;;;;;;;;;;;;;;;5.45;100.00;101719.88;5088499;28;19912;-59
2022/11/29 06:55:18;;;;;;;;;;;;;;;5.43;100.00;101717.34;5080327;28;19931;-60
2022/11/29 06:57:43;;;;;;;;;;;;;;;5.43;100.00;101720.00;5081722;28;19928;-61
2022/11/29 07:00:15;;;;;;;;;;;;;;;5.40;100.00;101727.28;5081745;28;20264;-57
2022/11/29 07:02:51;;;;;;;;;;;;;;;5.42;100.00;101722.75;5086685;28;19977;-60
2022/11/29 07:05:19;;;;;;;;;;;;;;;5.43;100.00;101725.25;5080587;28;19920;-57
2022/11/29 07:07:45;;;;;;;;;;;;;;;5.43;100.00;101730.53;5082838;28;19966;-60
2022/11/29 07:10:18;;;;;;;;;;;;;;;5.45;100.00;101738.31;5084563;28;20359;-60
2022/11/29 07:12:44;;;;;;;;;;;;;;;5.49;100.00;101740.63;5086979;28;19957;-59
2022/11/29 07:15:17;;;;;;;;;;;;;;;5.49;100.00;101732.72;5089552;28;20379;-60
2022/11/29 07:18:01;;;;;;;;;;;;;;;5.47;100.00;101750.41;5085820;28;19920;-58
2022/11/29 07:20:33;;;;;;;;;;;;;;;5.49;100.00;101745.03;5081173;28;20003;-60
2022/11/29 07:23:08;;;;;;;;;;;;;;;5.50;100.00;101752.00;5086757;28;19916;-58
2022/11/29 07:25:51;;;;;;;;;;;;;;;5.53;100.00;101751.78;5078255;28;19936;-58
2022/11/29 07:28:24;;;;;;;;;;;;;;;5.56;100.00;101748.91;5076461;28;19916;-59
2022/11/29 07:30:56;;;;;;;;;;;;;;;5.57;100.00;101753.22;5075574;28;19932;-59
2022/11/29 07:33:29;;;;;;;;;;;;;;;5.57;100.00;101755.84;5078393;28;20540;-61
2022/11/29 07:36:07;;;;;;;;;;;;;;;5.59;100.00;101764.47;5077546;28;19969;-59
2022/11/29 07:38:39;;;;;;;;;;;;;;;5.60;100.00;101766.16;5079221;28;19962;-58
2022/11/29 07:41:07;;;;;;;;;;;;;;;5.55;100.00;101749.84;5078080;28;19924;-60
2022/11/29 07:43:36;;;;;;;;;;;;;;;5.59;100.00;101762.69;5079663;28;19920;-59
2022/11/29 07:46:01;;;;;;;;;;;;;;;5.58;100.00;101765.44;5084553;28;20979;-59
2022/11/29 07:48:26;;;;;;;;;;;;;;;5.56;100.00;101765.56;5079166;28;20003;-58
2022/11/29 07:50:52;;;;;;;;;;;;;;;5.54;100.00;101770.09;5081391;28;19919;-59
2022/11/29 07:53:18;;;;;;;;;;;;;;;5.54;100.00;101779.78;5085378;28;19951;-57
2022/11/29 07:55:44;;;;;;;;;;;;;;;5.52;100.00;101777.28;5086199;28;19916;-60
2022/11/29 07:58:13;;;;;;;;;;;;;;;5.52;100.00;101784.34;5081614;28;20033;-60
2022/11/29 08:00:39;;;;;;;;;;;;;;;5.48;100.00;101783.69;5082785;28;19943;-59
2022/11/29 08:03:04;;;;;;;;;;;;;;;5.46;100.00;101784.78;5080005;28;19912;-57
2022/11/29 08:05:29;;;;;;;;;;;;;;;5.46;100.00;101782.13;5081369;28;20502;-58
2022/11/29 08:07:55;;;;;;;;;;;;;;;5.46;100.00;101784.78;5086363;28;19920;-60
2022/11/29 08:10:20;;;;;;;;;;;;;;;5.45;100.00;101789.19;5087900;28;19912;-60
2022/11/29 08:12:48;;;;;;;;;;;;;;;5.44;100.00;101797.22;5087386;28;19913;-59
2022/11/29 08:15:14;;;;;;;;;;;;;;;5.45;100.00;101788.38;5085859;28;19965;-60
2022/11/29 08:17:39;;;;;;;;;;;;;;;5.45;100.00;101788.38;5081630;28;20349;-58
2022/11/29 08:20:06;;;;;;;;;;;;;;;5.47;100.00;101783.81;5085620;28;19965;-60
2022/11/29 08:22:31;;;;;;;;;;;;;;;5.46;100.00;101788.25;5087743;28;20299;-60
2022/11/29 08:24:57;;;;;;;;;;;;;;;5.46;100.00;101784.78;5087888;28;19912;-57
2022/11/29 08:27:22;;;;;;;;;;;;;;;5.46;100.00;101788.25;5089009;28;19912;-59
2022/11/29 08:29:47;;;;;;;;;;;;;;;5.48;100.00;101785.50;5080683;28;19950;-59
2022/11/29 08:32:12;;;;;;;;;;;;;;;5.49;100.00;101784.53;5085063;28;19912;-59
2022/11/29 08:34:38;;;;;;;;;;;;;;;5.51;100.00;101794.03;5086348;28;20013;-57
2022/11/29 08:37:03;;;;;;;;;;;;;;;5.54;100.00;101792.97;5082539;28;20390;-59
2022/11/29 08:39:28;;;;;;;;;;;;;;;5.59;100.00;101790.81;5086918;28;19919;-58
2022/11/29 08:41:53;;;;;;;;;;;;;;;5.65;100.00;101802.69;5085563;28;19913;-60
2022/11/29 08:44:18;;;;;;;;;;;;;;;5.68;100.00;101802.47;5091811;28;19918;-59
2022/11/29 08:49:27;;;;;;;;;;;;;;;5.76;100.00;101808.81;5083730;28;19922;-59
2022/11/29 08:53:40;;;;;;;;;;;;;;;5.76;100.00;101805.34;5089701;28;19912;-59
2022/11/29 08:54:38;;;;;;;;;;;;;;;5.80;100.00;101807.66;5088415;28;20314;-60
2022/11/29 08:57:03;;;;;;;;;;;;;;;5.84;100.00;101822.28;5086270;28;20399;-59
2022/11/29 08:59:28;;;;;;;;;;;;;;;5.88;100.00;101821.09;5085538;28;20328;-59
2022/11/29 09:01:53;;;;;;;;;;;;;;;5.89;100.00;101817.53;5092376;28;19916;-58
2022/11/29 09:04:18;;;;;;;;;;;;;;;5.93;100.00;101818.13;5091699;28;19918;-60
2022/11/29 09:06:43;;;;;;;;;;;;;;;5.99;100.00;101825.56;5088801;28;19916;-59
2022/11/29 09:09:09;;;;;;;;;;;;;;;6.03;100.00;101834.09;5091369;28;19994;-59
2022/11/29 09:11:34;;;;;;;;;;;;;;;6.08;100.00;101837.25;5090609;28;19916;-59
2022/11/29 09:14:01;;;;;;;;;;;;;;;6.10;100.00;101836.16;5085844;28;20406;-59
2022/11/29 09:16:27;;;;;;;;;;;;;;;6.12;100.00;101836.88;5088704;28;20003;-60
2022/11/29 09:18:56;;;;;;;;;;;;;;;6.17;100.00;101844.44;5085697;28;19916;-60
2022/11/29 09:21:25;;;;;;;;;;;;;;;6.21;100.00;101845.88;5084446;28;20006;-59
2022/11/29 09:23:57;;;;;;;;;;;;;;;6.29;100.00;101847.91;5089219;28;20528;-57
2022/11/29 09:26:23;;;;;;;;;;;;;;;6.36;100.00;101851.75;5082406;28;19942;-61
2022/11/29 09:28:48;;;;;;;;;;;;;;;6.39;100.00;101857.66;5084571;28;20002;-61
2022/11/29 09:31:14;;;;;;;;;;;;;;;6.42;100.00;101861.88;5079356;28;20011;-57
2022/11/29 09:33:39;;;;;;;;;;;;;;;6.46;100.00;101858.03;5084941;28;20429;-61
2022/11/29 09:36:05;;;;;;;;;;;;;;;6.50;100.00;101859.47;5082179;28;19916;-60
2022/11/29 09:38:31;;;;;;;;;;;;;;;6.55;100.00;101861.75;5080096;28;20388;-60
2022/11/29 09:41:00;;;;;;;;;;;;;;;6.61;100.00;101866.53;5086720;28;20037;-58
2022/11/29 09:43:30;;;;;;;;;;;;;;;6.65;100.00;101870.59;5087536;28;20003;-61
2022/11/29 09:46:04;;;;;;;;;;;;;;;6.66;100.00;101874.97;5083127;28;19919;-59
2022/11/29 09:48:32;;;;;;;;;;;;;;;6.66;100.00;101873.16;5086299;28;19915;-59
2022/11/29 09:51:08;;;;;;;;;;;;;;;6.68;100.00;101878.31;5086167;28;19959;-59
2022/11/29 09:53:42;;;;;;;;;;;;;;;6.69;100.00;101880.84;5085546;28;19923;-59
2022/11/29 09:56:07;;;;;;;;;;;;;;;6.72;100.00;101882.41;5089841;28;19912;-58
2022/11/29 09:58:48;;;;;;;;;;;;;;;6.72;100.00;101880.59;5090185;28;19973;-58
2022/11/29 10:01:18;;;;;;;;;;;;;;;6.74;100.00;101877.84;5081969;28;20007;-60
2022/11/29 10:03:45;;;;;;;;;;;;;;;6.79;100.00;101876.50;5084948;28;19970;-57
2022/11/29 10:06:25;;;;;;;;;;;;;;;6.86;100.00;101887.41;5087456;28;19922;-59
2022/11/29 10:09:13;;;;;;;;;;;;;;;6.93;100.00;101887.75;5087969;28;20375;-59
2022/11/29 10:11:58;;;;;;;;;;;;;;;6.99;100.00;101880.22;5083538;28;19972;-58
2022/11/29 10:14:27;;;;;;;;;;;;;;;7.03;100.00;101881.66;5075774;28;20292;-58
2022/11/29 10:17:12;;;;;;;;;;;;;;;7.07;100.00;101883.09;5079621;28;20425;-59
2022/11/29 10:19:46;;;;;;;;;;;;;;;7.10;100.00;101884.63;5079206;28;19924;-60
2022/11/29 10:22:30;;;;;;;;;;;;;;;7.12;100.00;101877.44;5084698;28;20401;-59
2022/11/29 10:24:57;;;;;;;;;;;;;;;7.11;100.00;101873.94;5077673;28;20312;-60
2022/11/29 10:27:26;;;;;;;;;;;;;;;7.10;100.00;101877.56;5086754;28;20295;-57
2022/11/29 10:29:52;;;;;;;;;;;;;;;7.12;100.00;101872.97;5082063;28;19916;-60
2022/11/29 10:32:20;;;;;;;;;;;;;;;7.13;100.00;101874.66;5081172;28;19920;-58
2022/11/29 10:34:45;;;;;;;;;;;;;;;7.14;100.00;101875.50;5081493;28;20570;-58
2022/11/29 10:37:13;;;;;;;;;;;;;;;7.11;100.00;101879.22;5080857;28;19920;-59
2022/11/29 10:39:42;;;;;;;;;;;;;;;7.08;100.00;101876.84;5083660;28;19931;-60
2022/11/29 10:42:47;;;;;;;;;;;;;;;7.08;100.00;101874.19;5081976;28;19916;-60
2022/11/29 10:44:59;;;;;;;;;;;;;;;7.07;100.00;101872.53;5078470;28;19924;-60
2022/11/29 10:47:24;;;;;;;;;;;;;;;7.06;100.00;101878.75;5082665;28;19939;-59
2022/11/29 10:49:49;;;;;;;;;;;;;;;7.03;100.00;101879.00;5081846;28;20011;-59
2022/11/29 10:52:19;;;;;;;;;;;;;;;7.01;100.00;101867.72;5087837;28;19923;-59
2022/11/29 10:54:45;;;;;;;;;;;;;;;7.03;100.00;101879.00;5081881;28;19916;-59
2022/11/29 10:57:15;;;;;;;;;;;;;;;7.04;100.00;101882.50;5083578;28;19973;-60
2022/11/29 10:59:40;;;;;;;;;;;;;;;7.01;100.00;101880.94;5084750;28;19998;-59
2022/11/29 11:02:18;;;;;;;;;;;;;;;7.04;100.00;101893.91;5081893;28;20026;-57
2022/11/29 11:04:45;;;;;;;;;;;;;;;7.04;100.00;101885.97;5084806;28;20041;-62
2022/11/29 11:07:20;;;;;;;;;;;;;;;7.07;100.00;101885.72;5088837;28;19911;-60
2022/11/29 11:09:47;;;;;;;;;;;;;;;7.08;100.00;101882.13;5083523;28;20383;-59
2022/11/29 11:12:12;;;;;;;;;;;;;;;7.11;100.00;101892.44;5084952;28;19916;-59
2022/11/29 11:14:38;;;;;;;;;;;;;;;7.16;100.00;101889.44;5089515;28;19927;-59
2022/11/29 11:17:15;;;;;;;;;;;;;;;7.21;100.00;101892.53;5081851;28;19920;-61
2022/11/29 11:19:40;;;;;;;;;;;;;;;7.23;100.00;101885.34;5085507;28;19920;-57
2022/11/29 11:22:05;;;;;;;;;;;;;;;7.26;100.00;101884.25;5083078;28;19919;-57
2022/11/29 11:24:32;;;;;;;;;;;;;;;7.28;100.00;101883.19;5086595;28;19916;-57
2022/11/29 11:26:59;;;;;;;;;;;;;;;7.31;100.00;101882.09;5083216;28;19912;-59
2022/11/29 11:29:25;;;;;;;;;;;;;;;7.36;100.00;101890.47;5083460;28;20395;-60
2022/11/29 11:31:52;;;;;;;;;;;;;;;7.39;100.00;101890.22;5081146;28;19913;-59
2022/11/29 11:34:26;;;;;;;;;;;;;;;7.43;100.00;101896.94;5081487;28;19920;-60
2022/11/29 11:36:53;;;;;;;;;;;;;;;7.44;100.00;101894.16;5082720;28;19992;-60
2022/11/29 11:39:22;;;;;;;;;;;;;;;7.45;100.00;101895.84;5085486;28;20597;-61
2022/11/29 11:44:33;;;;;;;;;;;;;;;7.51;100.00;101904.25;5085311;28;19927;-58
2022/11/29 11:46:59;;;;;;;;;;;;;;;7.47;100.00;101901.00;5085336;28;19919;-60
2022/11/29 11:49:28;;;;;;;;;;;;;;;7.51;100.00;101907.72;5085154;28;20454;-59
2022/11/29 11:51:53;;;;;;;;;;;;;;;7.53;100.00;101911.09;5085458;28;19923;-59
2022/11/29 11:54:18;;;;;;;;;;;;;;;7.55;100.00;101909.19;5079992;28;20398;-60
2022/11/29 11:56:44;;;;;;;;;;;;;;;7.55;100.00;101906.53;5081358;28;19995;-60
2022/11/29 11:59:17;;;;;;;;;;;;;;;7.56;100.00;101897.63;5080359;28;19981;-59
2022/11/29 12:01:42;;;;;;;;;;;;;;;7.59;100.00;101907.97;5077801;28;20334;-61
2022/11/29 12:04:20;;;;;;;;;;;;;;;7.64;100.00;101912.88;5076531;28;19916;-60
2022/11/29 12:06:48;;;;;;;;;;;;;;;7.67;100.00;101905.53;5079616;28;19958;-60
2022/11/29 12:09:17;;;;;;;;;;;;;;;7.68;100.00;101925.69;5087376;28;19987;-59
2022/11/29 12:12:02;;;;;;;;;;;;;;;7.70;100.00;101918.47;5087213;28;19916;-58
2022/11/29 12:14:44;;;;;;;;;;;;;;;7.71;100.00;101912.22;5084965;28;20379;-57
2022/11/29 12:17:28;;;;;;;;;;;;;;;7.70;100.00;101920.28;5087798;28;19913;-59
2022/11/29 12:20:09;;;;;;;;;;;;;;;7.71;100.00;101927.25;5095644;28;20372;-59
2022/11/29 12:22:38;;;;;;;;;;;;;;;7.68;100.00;101927.50;5089040;28;20011;-59
2022/11/29 12:25:06;;;;;;;;;;;;;;;7.62;100.00;101936.78;5091301;28;19951;-59
2022/11/29 12:27:31;;;;;;;;;;;;;;;7.55;100.00;101938.25;5087633;28;20283;-59
2022/11/29 12:29:56;;;;;;;;;;;;;;;7.53;100.00;101939.34;5082363;28;20577;-59
2022/11/29 12:32:27;;;;;;;;;;;;;;;7.50;100.00;101936.91;5083415;28;19927;-57
2022/11/29 12:35:02;;;;;;;;;;;;;;;7.52;100.00;101949.06;5088956;28;19912;-57
2022/11/29 12:37:30;;;;;;;;;;;;;;;7.55;100.00;101951.47;5084995;28;19920;-60
2022/11/29 12:40:00;;;;;;;;;;;;;;;7.58;100.00;101956.50;5087871;28;19923;-59
2022/11/29 12:42:25;;;;;;;;;;;;;;;7.60;100.00;101956.38;5084389;28;19922;-58
2022/11/29 12:45:14;;;;;;;;;;;;;;;7.60;100.00;101957.22;5086401;28;19999;-59
2022/11/29 12:47:48;;;;;;;;;;;;;;;7.62;100.00;101968.50;5055995;28;20499;-58
2022/11/29 12:50:27;;;;;;;;;;;;;;;7.63;100.00;101970.19;5083102;28;20379;-60
2022/11/29 12:53:09;;;;;;;;;;;;;;;7.66;100.00;101966.44;5083400;28;20513;-60
2022/11/29 12:55:53;;;;;;;;;;;;;;;7.63;100.00;101964.91;5085060;28;19920;-57
2022/11/29 12:58:30;;;;;;;;;;;;;;;7.64;100.00;101976.31;5084708;28;19935;-62
2022/11/29 13:01:14;;;;;;;;;;;;;;;7.64;100.00;101977.16;5083164;28;20392;-58
2022/11/29 13:03:47;;;;;;;;;;;;;;;7.64;100.00;101961.28;5086111;28;19924;-59
2022/11/29 13:06:15;;;;;;;;;;;;;;;7.65;100.00;101962.97;5086083;28;20477;-60